sensor_id;sensor_type;location;lat;lon;timestamp;P1;durP1;ratioP1;P2;durP2;ratioP2
29380;SDS011;16364;52.490;13.326;2023-04-24T00:02:21;6.73;;;4.40;;
29380;SDS011;16364;52.490;13.326;2023-04-24T00:04:47;4.60;;;4.30;;
29380;SDS011;16364;52.490;13.326;2023-04-24T00:07:13;4.90;;;4.43;;
29380;SDS011;16364;52.490;13.326;2023-04-24T00:09:39;5.97;;;4.13;;
29380;SDS011;16364;52.490;13.326;2023-04-24T00:12:04;5.03;;;4.63;;
29380;SDS011;16364;52.490;13.326;2023-04-24T00:14:33;5.90;;;5.17;;
29380;SDS011;16364;52.490;13.326;2023-04-24T00:16:59;4.50;;;4.10;;
29380;SDS011;16364;52.490;13.326;2023-04-24T00:19:25;4.50;;;4.17;;
29380;SDS011;16364;52.490;13.326;2023-04-24T00:21:50;4.43;;;4.03;;
29380;SDS011;16364;52.490;13.326;2023-04-24T00:24:16;4.83;;;4.43;;
29380;SDS011;16364;52.490;13.326;2023-04-24T00:26:41;4.10;;;3.80;;
29380;SDS011;16364;52.490;13.326;2023-04-24T00:29:07;4.13;;;3.83;;
29380;SDS011;16364;52.490;13.326;2023-04-24T00:31:32;5.07;;;4.67;;
29380;SDS011;16364;52.490;13.326;2023-04-24T00:33:59;4.63;;;4.33;;
29380;SDS011;16364;52.490;13.326;2023-04-24T00:36:24;5.10;;;4.70;;
29380;SDS011;16364;52.490;13.326;2023-04-24T00:38:50;4.33;;;4.03;;
29380;SDS011;16364;52.490;13.326;2023-04-24T00:41:15;4.10;;;3.80;;
29380;SDS011;16364;52.490;13.326;2023-04-24T00:43:40;5.10;;;4.50;;
29380;SDS011;16364;52.490;13.326;2023-04-24T00:46:06;6.57;;;4.93;;
29380;SDS011;16364;52.490;13.326;2023-04-24T00:48:31;5.33;;;4.93;;
29380;SDS011;16364;52.490;13.326;2023-04-24T00:50:56;5.33;;;5.00;;
29380;SDS011;16364;52.490;13.326;2023-04-24T00:53:23;5.00;;;4.53;;
29380;SDS011;16364;52.490;13.326;2023-04-24T00:55:48;5.70;;;5.20;;
29380;SDS011;16364;52.490;13.326;2023-04-24T00:58:14;6.03;;;5.37;;
29380;SDS011;16364;52.490;13.326;2023-04-24T01:00:39;5.20;;;4.80;;
29380;SDS011;16364;52.490;13.326;2023-04-24T01:03:05;4.57;;;4.27;;
29380;SDS011;16364;52.490;13.326;2023-04-24T01:05:32;4.90;;;4.57;;
29380;SDS011;16364;52.490;13.326;2023-04-24T01:07:57;7.27;;;6.60;;
29380;SDS011;16364;52.490;13.326;2023-04-24T01:10:23;14.40;;;10.73;;
29380;SDS011;16364;52.490;13.326;2023-04-24T01:12:49;12.37;;;11.07;;
29380;SDS011;16364;52.490;13.326;2023-04-24T01:15:15;8.33;;;7.10;;
29380;SDS011;16364;52.490;13.326;2023-04-24T01:17:40;6.10;;;5.50;;
29380;SDS011;16364;52.490;13.326;2023-04-24T01:20:06;4.73;;;4.40;;
29380;SDS011;16364;52.490;13.326;2023-04-24T01:22:33;4.30;;;4.00;;
29380;SDS011;16364;52.490;13.326;2023-04-24T01:24:58;6.00;;;4.60;;
29380;SDS011;16364;52.490;13.326;2023-04-24T01:27:23;5.10;;;4.60;;
29380;SDS011;16364;52.490;13.326;2023-04-24T01:29:48;4.47;;;4.20;;
29380;SDS011;16364;52.490;13.326;2023-04-24T01:32:14;4.90;;;4.40;;
29380;SDS011;16364;52.490;13.326;2023-04-24T01:34:39;4.83;;;4.47;;
29380;SDS011;16364;52.490;13.326;2023-04-24T01:37:05;4.77;;;4.47;;
29380;SDS011;16364;52.490;13.326;2023-04-24T01:39:30;3.60;;;3.40;;
29380;SDS011;16364;52.490;13.326;2023-04-24T01:41:56;4.67;;;4.37;;
29380;SDS011;16364;52.490;13.326;2023-04-24T01:44:21;4.33;;;4.00;;
29380;SDS011;16364;52.490;13.326;2023-04-24T01:46:47;4.73;;;4.33;;
29380;SDS011;16364;52.490;13.326;2023-04-24T01:49:12;6.40;;;5.80;;
29380;SDS011;16364;52.490;13.326;2023-04-24T01:51:37;15.57;;;14.00;;
29380;SDS011;16364;52.490;13.326;2023-04-24T01:54:03;15.43;;;13.80;;
29380;SDS011;16364;52.490;13.326;2023-04-24T01:56:31;13.73;;;11.47;;
29380;SDS011;16364;52.490;13.326;2023-04-24T01:58:58;5.80;;;5.30;;
29380;SDS011;16364;52.490;13.326;2023-04-24T02:01:24;5.30;;;4.90;;
29380;SDS011;16364;52.490;13.326;2023-04-24T02:03:50;4.40;;;4.10;;
29380;SDS011;16364;52.490;13.326;2023-04-24T02:06:15;4.80;;;4.40;;
29380;SDS011;16364;52.490;13.326;2023-04-24T02:08:41;4.80;;;4.40;;
29380;SDS011;16364;52.490;13.326;2023-04-24T02:11:06;5.00;;;4.60;;
29380;SDS011;16364;52.490;13.326;2023-04-24T02:13:31;4.70;;;4.30;;
29380;SDS011;16364;52.490;13.326;2023-04-24T02:15:58;5.70;;;5.30;;
29380;SDS011;16364;52.490;13.326;2023-04-24T02:18:23;5.30;;;5.00;;
29380;SDS011;16364;52.490;13.326;2023-04-24T02:20:48;5.80;;;5.30;;
29380;SDS011;16364;52.490;13.326;2023-04-24T02:23:13;4.53;;;4.13;;
29380;SDS011;16364;52.490;13.326;2023-04-24T02:25:39;5.53;;;5.07;;
29380;SDS011;16364;52.490;13.326;2023-04-24T02:28:04;5.07;;;4.77;;
29380;SDS011;16364;52.490;13.326;2023-04-24T02:30:30;4.60;;;4.20;;
29380;SDS011;16364;52.490;13.326;2023-04-24T02:32:55;5.73;;;5.13;;
29380;SDS011;16364;52.490;13.326;2023-04-24T02:35:20;6.13;;;5.63;;
29380;SDS011;16364;52.490;13.326;2023-04-24T02:37:45;4.90;;;4.60;;
29380;SDS011;16364;52.490;13.326;2023-04-24T02:40:11;5.43;;;5.03;;
29380;SDS011;16364;52.490;13.326;2023-04-24T02:42:36;5.23;;;4.73;;
29380;SDS011;16364;52.490;13.326;2023-04-24T02:45:02;5.27;;;4.87;;
29380;SDS011;16364;52.490;13.326;2023-04-24T02:47:27;6.10;;;5.53;;
29380;SDS011;16364;52.490;13.326;2023-04-24T02:49:52;6.90;;;6.37;;
29380;SDS011;16364;52.490;13.326;2023-04-24T02:52:17;8.33;;;6.30;;
29380;SDS011;16364;52.490;13.326;2023-04-24T02:54:43;5.60;;;4.90;;
29380;SDS011;16364;52.490;13.326;2023-04-24T02:57:08;6.63;;;6.13;;
29380;SDS011;16364;52.490;13.326;2023-04-24T02:59:33;6.70;;;5.83;;
29380;SDS011;16364;52.490;13.326;2023-04-24T03:01:58;5.70;;;5.27;;
29380;SDS011;16364;52.490;13.326;2023-04-24T03:04:24;6.40;;;5.97;;
29380;SDS011;16364;52.490;13.326;2023-04-24T03:06:49;5.63;;;5.13;;
29380;SDS011;16364;52.490;13.326;2023-04-24T03:09:17;6.20;;;5.70;;
29380;SDS011;16364;52.490;13.326;2023-04-24T03:11:43;5.17;;;4.77;;
29380;SDS011;16364;52.490;13.326;2023-04-24T03:14:08;7.30;;;6.70;;
29380;SDS011;16364;52.490;13.326;2023-04-24T03:16:33;13.63;;;7.03;;
29380;SDS011;16364;52.490;13.326;2023-04-24T03:18:59;5.50;;;5.07;;
29380;SDS011;16364;52.490;13.326;2023-04-24T03:21:24;6.33;;;5.90;;
29380;SDS011;16364;52.490;13.326;2023-04-24T03:23:49;6.13;;;5.73;;
29380;SDS011;16364;52.490;13.326;2023-04-24T03:26:15;6.33;;;4.87;;
29380;SDS011;16364;52.490;13.326;2023-04-24T03:28:41;5.90;;;5.40;;
29380;SDS011;16364;52.490;13.326;2023-04-24T03:31:06;5.90;;;5.40;;
29380;SDS011;16364;52.490;13.326;2023-04-24T03:33:31;4.93;;;4.53;;
29380;SDS011;16364;52.490;13.326;2023-04-24T03:35:57;5.97;;;5.47;;
29380;SDS011;16364;52.490;13.326;2023-04-24T03:38:22;6.43;;;5.83;;
29380;SDS011;16364;52.490;13.326;2023-04-24T03:40:47;6.90;;;5.70;;
29380;SDS011;16364;52.490;13.326;2023-04-24T03:43:12;5.50;;;5.03;;
29380;SDS011;16364;52.490;13.326;2023-04-24T03:45:37;5.90;;;5.40;;
29380;SDS011;16364;52.490;13.326;2023-04-24T03:48:03;5.30;;;4.90;;
29380;SDS011;16364;52.490;13.326;2023-04-24T03:50:28;5.60;;;5.13;;
29380;SDS011;16364;52.490;13.326;2023-04-24T03:52:54;5.10;;;4.70;;
29380;SDS011;16364;52.490;13.326;2023-04-24T03:55:19;7.70;;;5.10;;
29380;SDS011;16364;52.490;13.326;2023-04-24T03:57:44;6.10;;;5.63;;
29380;SDS011;16364;52.490;13.326;2023-04-24T04:00:10;5.57;;;5.17;;
29380;SDS011;16364;52.490;13.326;2023-04-24T04:02:35;5.13;;;4.70;;
29380;SDS011;16364;52.490;13.326;2023-04-24T04:05:01;5.80;;;5.40;;
29380;SDS011;16364;52.490;13.326;2023-04-24T04:07:26;5.77;;;5.33;;
29380;SDS011;16364;52.490;13.326;2023-04-24T04:09:52;5.40;;;5.00;;
29380;SDS011;16364;52.490;13.326;2023-04-24T04:12:17;5.83;;;5.40;;
29380;SDS011;16364;52.490;13.326;2023-04-24T04:14:42;5.57;;;5.13;;
29380;SDS011;16364;52.490;13.326;2023-04-24T04:17:07;5.13;;;4.77;;
29380;SDS011;16364;52.490;13.326;2023-04-24T04:19:33;5.60;;;5.20;;
29380;SDS011;16364;52.490;13.326;2023-04-24T04:21:58;5.70;;;5.20;;
29380;SDS011;16364;52.490;13.326;2023-04-24T04:24:24;5.07;;;4.77;;
29380;SDS011;16364;52.490;13.326;2023-04-24T04:26:49;5.27;;;4.77;;
29380;SDS011;16364;52.490;13.326;2023-04-24T04:29:16;5.77;;;5.27;;
29380;SDS011;16364;52.490;13.326;2023-04-24T04:31:41;4.83;;;4.43;;
29380;SDS011;16364;52.490;13.326;2023-04-24T04:34:06;5.27;;;4.70;;
29380;SDS011;16364;52.490;13.326;2023-04-24T04:36:32;4.77;;;4.47;;
29380;SDS011;16364;52.490;13.326;2023-04-24T04:39:01;4.10;;;3.80;;
29380;SDS011;16364;52.490;13.326;2023-04-24T04:41:28;5.93;;;4.67;;
29380;SDS011;16364;52.490;13.326;2023-04-24T04:43:54;5.53;;;5.13;;
29380;SDS011;16364;52.490;13.326;2023-04-24T04:46:19;4.83;;;4.43;;
29380;SDS011;16364;52.490;13.326;2023-04-24T04:48:45;4.53;;;4.13;;
29380;SDS011;16364;52.490;13.326;2023-04-24T04:51:10;4.80;;;4.30;;
29380;SDS011;16364;52.490;13.326;2023-04-24T04:53:36;4.23;;;3.83;;
29380;SDS011;16364;52.490;13.326;2023-04-24T04:56:01;4.20;;;3.90;;
29380;SDS011;16364;52.490;13.326;2023-04-24T04:58:26;4.77;;;4.33;;
29380;SDS011;16364;52.490;13.326;2023-04-24T05:00:51;4.07;;;3.77;;
29380;SDS011;16364;52.490;13.326;2023-04-24T05:03:17;4.40;;;4.00;;
29380;SDS011;16364;52.490;13.326;2023-04-24T05:05:42;4.47;;;4.17;;
29380;SDS011;16364;52.490;13.326;2023-04-24T05:08:07;4.20;;;3.80;;
29380;SDS011;16364;52.490;13.326;2023-04-24T05:10:33;4.60;;;4.20;;
29380;SDS011;16364;52.490;13.326;2023-04-24T05:12:58;5.10;;;4.27;;
29380;SDS011;16364;52.490;13.326;2023-04-24T05:15:24;3.67;;;3.37;;
29380;SDS011;16364;52.490;13.326;2023-04-24T05:17:49;4.57;;;4.17;;
29380;SDS011;16364;52.490;13.326;2023-04-24T05:20:15;4.83;;;3.80;;
29380;SDS011;16364;52.490;13.326;2023-04-24T05:22:40;5.13;;;3.40;;
29380;SDS011;16364;52.490;13.326;2023-04-24T05:25:05;3.10;;;2.80;;
29380;SDS011;16364;52.490;13.326;2023-04-24T05:27:30;3.20;;;3.00;;
29380;SDS011;16364;52.490;13.326;2023-04-24T05:29:56;4.40;;;3.33;;
29380;SDS011;16364;52.490;13.326;2023-04-24T05:32:21;3.50;;;3.17;;
29380;SDS011;16364;52.490;13.326;2023-04-24T05:34:46;4.53;;;3.20;;
29380;SDS011;16364;52.490;13.326;2023-04-24T05:37:12;3.30;;;3.00;;
29380;SDS011;16364;52.490;13.326;2023-04-24T05:39:37;2.93;;;2.73;;
29380;SDS011;16364;52.490;13.326;2023-04-24T05:42:03;2.63;;;2.43;;
29380;SDS011;16364;52.490;13.326;2023-04-24T05:44:29;2.57;;;2.37;;
29380;SDS011;16364;52.490;13.326;2023-04-24T05:46:55;2.60;;;2.40;;
29380;SDS011;16364;52.490;13.326;2023-04-24T05:49:23;5.00;;;2.33;;
29380;SDS011;16364;52.490;13.326;2023-04-24T05:51:48;2.37;;;2.17;;
29380;SDS011;16364;52.490;13.326;2023-04-24T05:54:13;3.00;;;2.80;;
29380;SDS011;16364;52.490;13.326;2023-04-24T05:56:39;2.50;;;2.30;;
29380;SDS011;16364;52.490;13.326;2023-04-24T05:59:04;6.23;;;2.60;;
29380;SDS011;16364;52.490;13.326;2023-04-24T06:01:29;3.10;;;2.77;;
29380;SDS011;16364;52.490;13.326;2023-04-24T06:03:56;2.40;;;2.20;;
29380;SDS011;16364;52.490;13.326;2023-04-24T06:06:21;2.80;;;2.13;;
29380;SDS011;16364;52.490;13.326;2023-04-24T06:08:46;2.00;;;1.80;;
29380;SDS011;16364;52.490;13.326;2023-04-24T06:11:12;2.10;;;1.90;;
29380;SDS011;16364;52.490;13.326;2023-04-24T06:13:37;2.33;;;1.70;;
29380;SDS011;16364;52.490;13.326;2023-04-24T06:16:02;1.77;;;1.67;;
29380;SDS011;16364;52.490;13.326;2023-04-24T06:18:27;3.40;;;2.37;;
29380;SDS011;16364;52.490;13.326;2023-04-24T06:20:53;2.30;;;1.80;;
29380;SDS011;16364;52.490;13.326;2023-04-24T06:23:18;1.93;;;1.80;;
29380;SDS011;16364;52.490;13.326;2023-04-24T06:25:43;3.43;;;1.90;;
29380;SDS011;16364;52.490;13.326;2023-04-24T06:28:08;1.97;;;1.77;;
29380;SDS011;16364;52.490;13.326;2023-04-24T06:30:34;2.83;;;2.03;;
29380;SDS011;16364;52.490;13.326;2023-04-24T06:32:59;2.30;;;2.10;;
29380;SDS011;16364;52.490;13.326;2023-04-24T06:35:24;1.73;;;1.63;;
29380;SDS011;16364;52.490;13.326;2023-04-24T06:37:50;1.50;;;1.40;;
29380;SDS011;16364;52.490;13.326;2023-04-24T06:40:15;1.60;;;1.50;;
29380;SDS011;16364;52.490;13.326;2023-04-24T06:42:43;1.83;;;1.30;;
29380;SDS011;16364;52.490;13.326;2023-04-24T06:45:08;1.40;;;1.30;;
29380;SDS011;16364;52.490;13.326;2023-04-24T06:47:34;1.27;;;1.17;;
29380;SDS011;16364;52.490;13.326;2023-04-24T06:49:59;3.10;;;1.30;;
29380;SDS011;16364;52.490;13.326;2023-04-24T06:52:24;1.30;;;1.20;;
29380;SDS011;16364;52.490;13.326;2023-04-24T06:54:50;4.13;;;1.20;;
29380;SDS011;16364;52.490;13.326;2023-04-24T06:57:15;1.33;;;1.23;;
29380;SDS011;16364;52.490;13.326;2023-04-24T06:59:41;1.43;;;1.33;;
29380;SDS011;16364;52.490;13.326;2023-04-24T07:02:06;1.20;;;1.10;;
29380;SDS011;16364;52.490;13.326;2023-04-24T07:04:31;1.00;;;0.90;;
29380;SDS011;16364;52.490;13.326;2023-04-24T07:06:57;1.10;;;1.00;;
29380;SDS011;16364;52.490;13.326;2023-04-24T07:09:23;1.43;;;1.10;;
29380;SDS011;16364;52.490;13.326;2023-04-24T07:11:49;1.27;;;1.10;;
29380;SDS011;16364;52.490;13.326;2023-04-24T07:14:14;1.10;;;1.00;;
29380;SDS011;16364;52.490;13.326;2023-04-24T07:16:40;1.50;;;1.10;;
29380;SDS011;16364;52.490;13.326;2023-04-24T07:19:05;3.13;;;1.00;;
29380;SDS011;16364;52.490;13.326;2023-04-24T07:21:31;1.67;;;1.47;;
29380;SDS011;16364;52.490;13.326;2023-04-24T07:23:57;1.43;;;0.93;;
29380;SDS011;16364;52.490;13.326;2023-04-24T07:26:22;0.70;;;0.70;;
29380;SDS011;16364;52.490;13.326;2023-04-24T07:28:47;1.20;;;1.10;;
29380;SDS011;16364;52.490;13.326;2023-04-24T07:31:12;0.93;;;0.90;;
29380;SDS011;16364;52.490;13.326;2023-04-24T07:33:37;1.00;;;0.90;;
29380;SDS011;16364;52.490;13.326;2023-04-24T07:36:03;1.53;;;0.90;;
29380;SDS011;16364;52.490;13.326;2023-04-24T07:38:31;1.00;;;0.90;;
29380;SDS011;16364;52.490;13.326;2023-04-24T07:40:57;0.97;;;0.80;;
29380;SDS011;16364;52.490;13.326;2023-04-24T07:43:22;2.43;;;0.90;;
29380;SDS011;16364;52.490;13.326;2023-04-24T07:45:48;1.60;;;1.00;;
29380;SDS011;16364;52.490;13.326;2023-04-24T07:48:14;3.90;;;0.90;;
29380;SDS011;16364;52.490;13.326;2023-04-24T07:50:41;0.90;;;0.90;;
29380;SDS011;16364;52.490;13.326;2023-04-24T07:53:06;3.40;;;0.97;;
29380;SDS011;16364;52.490;13.326;2023-04-24T07:55:31;1.27;;;0.80;;
29380;SDS011;16364;52.490;13.326;2023-04-24T07:57:56;0.93;;;0.80;;
29380;SDS011;16364;52.490;13.326;2023-04-24T08:00:22;0.80;;;0.80;;
29380;SDS011;16364;52.490;13.326;2023-04-24T08:02:47;0.97;;;0.97;;
29380;SDS011;16364;52.490;13.326;2023-04-24T08:05:12;0.87;;;0.80;;
29380;SDS011;16364;52.490;13.326;2023-04-24T08:07:38;2.70;;;0.80;;
29380;SDS011;16364;52.490;13.326;2023-04-24T08:10:03;0.80;;;0.70;;
29380;SDS011;16364;52.490;13.326;2023-04-24T08:12:28;0.70;;;0.70;;
29380;SDS011;16364;52.490;13.326;2023-04-24T08:14:54;1.13;;;0.93;;
29380;SDS011;16364;52.490;13.326;2023-04-24T08:17:19;0.80;;;0.70;;
29380;SDS011;16364;52.490;13.326;2023-04-24T08:19:44;1.70;;;0.80;;
29380;SDS011;16364;52.490;13.326;2023-04-24T08:22:13;1.20;;;0.93;;
29380;SDS011;16364;52.490;13.326;2023-04-24T08:24:39;2.50;;;0.80;;
29380;SDS011;16364;52.490;13.326;2023-04-24T08:27:04;0.70;;;0.70;;
29380;SDS011;16364;52.490;13.326;2023-04-24T08:29:29;1.10;;;1.00;;
29380;SDS011;16364;52.490;13.326;2023-04-24T08:31:54;1.40;;;0.80;;
29380;SDS011;16364;52.490;13.326;2023-04-24T08:34:20;0.80;;;0.80;;
29380;SDS011;16364;52.490;13.326;2023-04-24T08:36:45;1.77;;;0.73;;
29380;SDS011;16364;52.490;13.326;2023-04-24T08:39:11;1.00;;;0.80;;
29380;SDS011;16364;52.490;13.326;2023-04-24T08:41:36;0.70;;;0.70;;
29380;SDS011;16364;52.490;13.326;2023-04-24T08:44:02;0.80;;;0.70;;
29380;SDS011;16364;52.490;13.326;2023-04-24T08:46:28;0.70;;;0.60;;
29380;SDS011;16364;52.490;13.326;2023-04-24T08:48:54;0.70;;;0.70;;
29380;SDS011;16364;52.490;13.326;2023-04-24T08:51:20;1.30;;;0.80;;
29380;SDS011;16364;52.490;13.326;2023-04-24T08:53:46;0.80;;;0.70;;
29380;SDS011;16364;52.490;13.326;2023-04-24T08:56:11;0.80;;;0.80;;
29380;SDS011;16364;52.490;13.326;2023-04-24T08:58:37;2.07;;;0.70;;
29380;SDS011;16364;52.490;13.326;2023-04-24T09:01:03;2.50;;;0.80;;
29380;SDS011;16364;52.490;13.326;2023-04-24T09:03:29;0.70;;;0.70;;
29380;SDS011;16364;52.490;13.326;2023-04-24T09:05:55;3.43;;;0.80;;
29380;SDS011;16364;52.490;13.326;2023-04-24T09:08:20;1.13;;;0.90;;
29380;SDS011;16364;52.490;13.326;2023-04-24T09:10:48;0.80;;;0.80;;
29380;SDS011;16364;52.490;13.326;2023-04-24T09:13:14;0.87;;;0.73;;
29380;SDS011;16364;52.490;13.326;2023-04-24T09:15:39;1.40;;;0.80;;
29380;SDS011;16364;52.490;13.326;2023-04-24T09:18:05;0.70;;;0.70;;
29380;SDS011;16364;52.490;13.326;2023-04-24T09:20:31;1.13;;;0.87;;
29380;SDS011;16364;52.490;13.326;2023-04-24T09:22:57;1.60;;;0.90;;
29380;SDS011;16364;52.490;13.326;2023-04-24T09:25:23;4.60;;;1.10;;
29380;SDS011;16364;52.490;13.326;2023-04-24T09:27:50;2.20;;;1.10;;
29380;SDS011;16364;52.490;13.326;2023-04-24T09:30:21;1.57;;;1.00;;
29380;SDS011;16364;52.490;13.326;2023-04-24T09:32:46;1.10;;;1.00;;
29380;SDS011;16364;52.490;13.326;2023-04-24T09:35:13;1.80;;;1.10;;
29380;SDS011;16364;52.490;13.326;2023-04-24T09:37:39;1.97;;;1.10;;
29380;SDS011;16364;52.490;13.326;2023-04-24T09:40:11;1.73;;;0.90;;
29380;SDS011;16364;52.490;13.326;2023-04-24T09:42:37;2.87;;;1.20;;
29380;SDS011;16364;52.490;13.326;2023-04-24T09:45:02;1.00;;;0.87;;
29380;SDS011;16364;52.490;13.326;2023-04-24T09:47:28;2.43;;;0.90;;
29380;SDS011;16364;52.490;13.326;2023-04-24T09:50:01;1.63;;;0.90;;
29380;SDS011;16364;52.490;13.326;2023-04-24T09:52:33;2.10;;;0.90;;
29380;SDS011;16364;52.490;13.326;2023-04-24T09:54:58;1.67;;;0.80;;
29380;SDS011;16364;52.490;13.326;2023-04-24T09:57:24;1.00;;;0.90;;
29380;SDS011;16364;52.490;13.326;2023-04-24T09:59:49;1.13;;;1.03;;
29380;SDS011;16364;52.490;13.326;2023-04-24T10:02:18;0.80;;;0.80;;
29380;SDS011;16364;52.490;13.326;2023-04-24T10:04:53;1.57;;;0.70;;
29380;SDS011;16364;52.490;13.326;2023-04-24T10:07:19;0.90;;;0.90;;
29380;SDS011;16364;52.490;13.326;2023-04-24T10:09:44;1.10;;;0.87;;
29380;SDS011;16364;52.490;13.326;2023-04-24T10:12:09;1.43;;;0.90;;
29380;SDS011;16364;52.490;13.326;2023-04-24T10:14:35;2.23;;;0.80;;
29380;SDS011;16364;52.490;13.326;2023-04-24T10:17:01;1.30;;;0.97;;
29380;SDS011;16364;52.490;13.326;2023-04-24T10:19:26;1.10;;;1.00;;
29380;SDS011;16364;52.490;13.326;2023-04-24T10:21:52;1.30;;;1.10;;
29380;SDS011;16364;52.490;13.326;2023-04-24T10:24:18;2.90;;;1.17;;
29380;SDS011;16364;52.490;13.326;2023-04-24T10:26:44;1.20;;;1.10;;
29380;SDS011;16364;52.490;13.326;2023-04-24T10:29:10;1.33;;;1.23;;
29380;SDS011;16364;52.490;13.326;2023-04-24T10:31:37;1.67;;;0.80;;
29380;SDS011;16364;52.490;13.326;2023-04-24T10:34:04;2.33;;;1.00;;
29380;SDS011;16364;52.490;13.326;2023-04-24T10:36:30;2.00;;;0.80;;
29380;SDS011;16364;52.490;13.326;2023-04-24T10:38:57;0.93;;;0.93;;
29380;SDS011;16364;52.490;13.326;2023-04-24T10:41:24;1.47;;;0.90;;
29380;SDS011;16364;52.490;13.326;2023-04-24T10:46:31;1.30;;;1.20;;
29380;SDS011;16364;52.490;13.326;2023-04-24T10:48:57;1.00;;;0.80;;
29380;SDS011;16364;52.490;13.326;2023-04-24T10:51:23;1.00;;;0.90;;
29380;SDS011;16364;52.490;13.326;2023-04-24T10:53:51;1.70;;;0.80;;
29380;SDS011;16364;52.490;13.326;2023-04-24T10:56:17;0.90;;;0.80;;
29380;SDS011;16364;52.490;13.326;2023-04-24T10:58:44;0.90;;;0.80;;
29380;SDS011;16364;52.490;13.326;2023-04-24T11:03:56;1.73;;;0.80;;
29380;SDS011;16364;52.490;13.326;2023-04-24T11:06:55;1.00;;;0.80;;
29380;SDS011;16364;52.490;13.326;2023-04-24T11:09:14;5.47;;;1.07;;
29380;SDS011;16364;52.490;13.326;2023-04-24T11:11:44;1.00;;;0.90;;
29380;SDS011;16364;52.490;13.326;2023-04-24T11:14:10;1.57;;;0.70;;
29380;SDS011;16364;52.490;13.326;2023-04-24T11:16:38;1.20;;;0.80;;
29380;SDS011;16364;52.490;13.326;2023-04-24T11:21:42;0.83;;;0.80;;
29380;SDS011;16364;52.490;13.326;2023-04-24T11:26:54;2.60;;;1.10;;
29380;SDS011;16364;52.490;13.326;2023-04-24T11:29:20;1.00;;;0.90;;
29380;SDS011;16364;52.490;13.326;2023-04-24T11:31:46;0.90;;;0.90;;
29380;SDS011;16364;52.490;13.326;2023-04-24T11:34:14;1.10;;;1.00;;
29380;SDS011;16364;52.490;13.326;2023-04-24T11:36:45;1.20;;;1.10;;
29380;SDS011;16364;52.490;13.326;2023-04-24T11:39:10;1.70;;;1.40;;
29380;SDS011;16364;52.490;13.326;2023-04-24T11:41:36;2.10;;;1.00;;
29380;SDS011;16364;52.490;13.326;2023-04-24T11:44:01;1.40;;;1.03;;
29380;SDS011;16364;52.490;13.326;2023-04-24T11:46:30;1.97;;;1.00;;
29380;SDS011;16364;52.490;13.326;2023-04-24T11:48:57;1.30;;;1.07;;
29380;SDS011;16364;52.490;13.326;2023-04-24T11:51:22;1.00;;;0.90;;
29380;SDS011;16364;52.490;13.326;2023-04-24T11:53:48;1.17;;;1.07;;
29380;SDS011;16364;52.490;13.326;2023-04-24T11:56:16;1.60;;;1.10;;
29380;SDS011;16364;52.490;13.326;2023-04-24T11:58:42;1.70;;;1.10;;
29380;SDS011;16364;52.490;13.326;2023-04-24T12:01:07;1.00;;;0.90;;
29380;SDS011;16364;52.490;13.326;2023-04-24T12:03:32;1.60;;;1.00;;
29380;SDS011;16364;52.490;13.326;2023-04-24T12:06:04;1.70;;;0.90;;
29380;SDS011;16364;52.490;13.326;2023-04-24T12:08:31;1.30;;;1.00;;
29380;SDS011;16364;52.490;13.326;2023-04-24T12:10:57;1.43;;;0.90;;
29380;SDS011;16364;52.490;13.326;2023-04-24T12:13:25;0.80;;;0.80;;
29380;SDS011;16364;52.490;13.326;2023-04-24T12:15:50;1.67;;;0.90;;
29380;SDS011;16364;52.490;13.326;2023-04-24T12:18:15;1.10;;;1.00;;
29380;SDS011;16364;52.490;13.326;2023-04-24T12:20:42;1.47;;;0.93;;
29380;SDS011;16364;52.490;13.326;2023-04-24T12:23:07;1.27;;;0.87;;
29380;SDS011;16364;52.490;13.326;2023-04-24T12:25:33;1.40;;;0.93;;
29380;SDS011;16364;52.490;13.326;2023-04-24T12:30:39;1.20;;;0.90;;
29380;SDS011;16364;52.490;13.326;2023-04-24T12:33:04;1.10;;;1.00;;
29380;SDS011;16364;52.490;13.326;2023-04-24T12:35:31;1.30;;;0.80;;
29380;SDS011;16364;52.490;13.326;2023-04-24T12:38:07;0.90;;;0.70;;
29380;SDS011;16364;52.490;13.326;2023-04-24T12:40:33;1.23;;;0.90;;
29380;SDS011;16364;52.490;13.326;2023-04-24T12:42:58;0.90;;;0.77;;
29380;SDS011;16364;52.490;13.326;2023-04-24T12:45:23;1.07;;;0.67;;
29380;SDS011;16364;52.490;13.326;2023-04-24T12:47:50;0.80;;;0.80;;
29380;SDS011;16364;52.490;13.326;2023-04-24T12:50:15;2.50;;;1.00;;
29380;SDS011;16364;52.490;13.326;2023-04-24T12:52:41;1.63;;;0.80;;
29380;SDS011;16364;52.490;13.326;2023-04-24T12:55:06;1.10;;;0.83;;
29380;SDS011;16364;52.490;13.326;2023-04-24T12:57:35;1.50;;;0.90;;
29380;SDS011;16364;52.490;13.326;2023-04-24T13:00:01;0.90;;;0.80;;
29380;SDS011;16364;52.490;13.326;2023-04-24T13:02:27;1.77;;;0.80;;
29380;SDS011;16364;52.490;13.326;2023-04-24T13:04:53;1.00;;;0.87;;
29380;SDS011;16364;52.490;13.326;2023-04-24T13:07:19;3.97;;;0.80;;
29380;SDS011;16364;52.490;13.326;2023-04-24T13:09:45;1.03;;;0.83;;
29380;SDS011;16364;52.490;13.326;2023-04-24T13:12:10;1.77;;;0.80;;
29380;SDS011;16364;52.490;13.326;2023-04-24T13:14:36;0.97;;;0.80;;
29380;SDS011;16364;52.490;13.326;2023-04-24T13:17:01;0.90;;;0.80;;
29380;SDS011;16364;52.490;13.326;2023-04-24T13:19:27;1.43;;;0.80;;
29380;SDS011;16364;52.490;13.326;2023-04-24T13:21:56;1.07;;;0.70;;
29380;SDS011;16364;52.490;13.326;2023-04-24T13:24:25;0.80;;;0.80;;
29380;SDS011;16364;52.490;13.326;2023-04-24T13:26:51;0.77;;;0.77;;
29380;SDS011;16364;52.490;13.326;2023-04-24T13:29:17;1.93;;;0.90;;
29380;SDS011;16364;52.490;13.326;2023-04-24T13:31:42;1.00;;;0.80;;
29380;SDS011;16364;52.490;13.326;2023-04-24T13:34:07;0.80;;;0.70;;
29380;SDS011;16364;52.490;13.326;2023-04-24T13:36:32;0.90;;;0.70;;
29380;SDS011;16364;52.490;13.326;2023-04-24T13:38:58;1.37;;;0.80;;
29380;SDS011;16364;52.490;13.326;2023-04-24T13:41:23;4.20;;;0.90;;
29380;SDS011;16364;52.490;13.326;2023-04-24T13:43:48;1.80;;;0.73;;
29380;SDS011;16364;52.490;13.326;2023-04-24T13:46:13;2.27;;;1.00;;
29380;SDS011;16364;52.490;13.326;2023-04-24T13:48:39;1.03;;;0.90;;
29380;SDS011;16364;52.490;13.326;2023-04-24T13:51:04;2.90;;;0.90;;
29380;SDS011;16364;52.490;13.326;2023-04-24T13:53:29;0.80;;;0.80;;
29380;SDS011;16364;52.490;13.326;2023-04-24T13:55:54;1.57;;;0.90;;
29380;SDS011;16364;52.490;13.326;2023-04-24T13:58:20;2.07;;;1.00;;
29380;SDS011;16364;52.490;13.326;2023-04-24T14:00:45;0.73;;;0.73;;
29380;SDS011;16364;52.490;13.326;2023-04-24T14:03:11;0.80;;;0.80;;
29380;SDS011;16364;52.490;13.326;2023-04-24T14:05:36;1.90;;;0.90;;
29380;SDS011;16364;52.490;13.326;2023-04-24T14:08:02;0.83;;;0.80;;
29380;SDS011;16364;52.490;13.326;2023-04-24T14:10:27;0.70;;;0.70;;
29380;SDS011;16364;52.490;13.326;2023-04-24T14:12:52;2.13;;;0.90;;
29380;SDS011;16364;52.490;13.326;2023-04-24T14:15:18;0.80;;;0.80;;
29380;SDS011;16364;52.490;13.326;2023-04-24T14:17:43;2.00;;;0.80;;
29380;SDS011;16364;52.490;13.326;2023-04-24T14:20:08;1.23;;;0.70;;
29380;SDS011;16364;52.490;13.326;2023-04-24T14:22:34;0.70;;;0.70;;
29380;SDS011;16364;52.490;13.326;2023-04-24T14:24:59;1.00;;;0.77;;
29380;SDS011;16364;52.490;13.326;2023-04-24T14:27:24;1.43;;;0.80;;
29380;SDS011;16364;52.490;13.326;2023-04-24T14:29:50;4.37;;;1.00;;
29380;SDS011;16364;52.490;13.326;2023-04-24T14:32:16;1.00;;;0.93;;
29380;SDS011;16364;52.490;13.326;2023-04-24T14:34:41;3.93;;;1.10;;
29380;SDS011;16364;52.490;13.326;2023-04-24T14:37:06;2.63;;;0.97;;
29380;SDS011;16364;52.490;13.326;2023-04-24T14:39:32;2.10;;;1.30;;